sensor_id;sensor_type;location;lat;lon;timestamp;P1;durP1;ratioP1;P2;durP2;ratioP2
59828;SDS011;45708;51.848;107.620;2022-09-24T00:01:14;1.40;;;1.30;;
59828;SDS011;45708;51.848;107.620;2022-09-24T00:06:17;3.08;;;1.70;;
59828;SDS011;45708;51.848;107.620;2022-09-24T00:11:19;6.03;;;1.25;;
59828;SDS011;45708;51.848;107.620;2022-09-24T00:16:20;4.55;;;1.85;;
59828;SDS011;45708;51.848;107.620;2022-09-24T00:21:23;3.42;;;2.08;;
59828;SDS011;45708;51.848;107.620;2022-09-24T00:26:26;3.25;;;1.95;;
59828;SDS011;45708;51.848;107.620;2022-09-24T00:31:27;2.17;;;1.60;;
59828;SDS011;45708;51.848;107.620;2022-09-24T00:36:28;3.80;;;3.15;;
59828;SDS011;45708;51.848;107.620;2022-09-24T00:41:30;3.60;;;1.40;;
59828;SDS011;45708;51.848;107.620;2022-09-24T00:46:37;1.10;;;0.95;;
59828;SDS011;45708;51.848;107.620;2022-09-24T00:51:40;2.33;;;1.00;;
59828;SDS011;45708;51.848;107.620;2022-09-24T00:56:44;2.03;;;1.13;;
59828;SDS011;45708;51.848;107.620;2022-09-24T01:01:48;2.33;;;1.40;;
59828;SDS011;45708;51.848;107.620;2022-09-24T01:06:51;1.55;;;1.33;;
59828;SDS011;45708;51.848;107.620;2022-09-24T01:33:15;1.10;;;1.00;;
59828;SDS011;45708;51.848;107.620;2022-09-24T01:38:27;1.15;;;1.05;;
59828;SDS011;45708;51.848;107.620;2022-09-24T01:43:30;4.53;;;3.75;;
59828;SDS011;45708;51.848;107.620;2022-09-24T01:48:37;0.98;;;0.90;;
59828;SDS011;45708;51.848;107.620;2022-09-24T01:58:50;3.55;;;1.17;;
59828;SDS011;45708;51.848;107.620;2022-09-24T02:03:59;0.93;;;0.82;;
59828;SDS011;45708;51.848;107.620;2022-09-24T02:14:31;1.35;;;1.00;;
59828;SDS011;45708;51.848;107.620;2022-09-24T02:19:39;4.03;;;1.30;;
59828;SDS011;45708;51.848;107.620;2022-09-24T02:24:54;1.50;;;1.35;;
59828;SDS011;45708;51.848;107.620;2022-09-24T02:29:57;4.80;;;2.38;;
59828;SDS011;45708;51.848;107.620;2022-09-24T02:35:00;1.77;;;1.15;;
59828;SDS011;45708;51.848;107.620;2022-09-24T02:40:04;4.28;;;2.33;;
59828;SDS011;45708;51.848;107.620;2022-09-24T02:45:07;2.42;;;1.60;;
59828;SDS011;45708;51.848;107.620;2022-09-24T02:50:09;1.58;;;1.00;;
59828;SDS011;45708;51.848;107.620;2022-09-24T02:55:09;0.85;;;0.60;;
59828;SDS011;45708;51.848;107.620;2022-09-24T03:00:10;1.45;;;0.77;;
59828;SDS011;45708;51.848;107.620;2022-09-24T03:05:12;1.83;;;0.70;;
59828;SDS011;45708;51.848;107.620;2022-09-24T03:10:13;1.83;;;1.02;;
59828;SDS011;45708;51.848;107.620;2022-09-24T03:15:14;1.00;;;0.68;;
59828;SDS011;45708;51.848;107.620;2022-09-24T03:20:15;1.17;;;0.73;;
59828;SDS011;45708;51.848;107.620;2022-09-24T03:25:17;2.25;;;1.00;;
59828;SDS011;45708;51.848;107.620;2022-09-24T03:30:18;1.92;;;0.88;;
59828;SDS011;45708;51.848;107.620;2022-09-24T03:35:19;2.30;;;1.17;;
59828;SDS011;45708;51.848;107.620;2022-09-24T03:40:20;1.85;;;1.15;;
59828;SDS011;45708;51.848;107.620;2022-09-24T03:45:21;1.20;;;1.00;;
59828;SDS011;45708;51.848;107.620;2022-09-24T03:50:22;1.08;;;0.90;;
59828;SDS011;45708;51.848;107.620;2022-09-24T03:55:22;2.13;;;1.73;;
59828;SDS011;45708;51.848;107.620;2022-09-24T04:00:23;5.70;;;2.00;;
59828;SDS011;45708;51.848;107.620;2022-09-24T04:05:24;2.78;;;1.67;;
59828;SDS011;45708;51.848;107.620;2022-09-24T04:10:25;2.00;;;0.88;;
59828;SDS011;45708;51.848;107.620;2022-09-24T04:15:26;5.50;;;2.20;;
59828;SDS011;45708;51.848;107.620;2022-09-24T04:20:27;2.85;;;1.05;;
59828;SDS011;45708;51.848;107.620;2022-09-24T04:25:29;2.05;;;1.30;;
59828;SDS011;45708;51.848;107.620;2022-09-24T04:30:32;2.22;;;1.60;;
59828;SDS011;45708;51.848;107.620;2022-09-24T04:35:35;8.63;;;2.15;;
59828;SDS011;45708;51.848;107.620;2022-09-24T04:40:35;8.38;;;4.18;;
59828;SDS011;45708;51.848;107.620;2022-09-24T04:45:36;7.85;;;7.05;;
59828;SDS011;45708;51.848;107.620;2022-09-24T04:50:38;5.25;;;2.38;;
59828;SDS011;45708;51.848;107.620;2022-09-24T04:55:38;5.82;;;3.17;;
59828;SDS011;45708;51.848;107.620;2022-09-24T05:00:39;10.88;;;5.43;;
59828;SDS011;45708;51.848;107.620;2022-09-24T05:05:40;3.97;;;1.67;;
59828;SDS011;45708;51.848;107.620;2022-09-24T05:10:41;3.42;;;1.63;;
59828;SDS011;45708;51.848;107.620;2022-09-24T05:15:42;2.70;;;1.80;;
59828;SDS011;45708;51.848;107.620;2022-09-24T05:20:42;3.03;;;1.75;;
59828;SDS011;45708;51.848;107.620;2022-09-24T05:25:43;2.22;;;1.38;;
59828;SDS011;45708;51.848;107.620;2022-09-24T05:30:44;2.75;;;1.25;;
59828;SDS011;45708;51.848;107.620;2022-09-24T05:35:51;8.80;;;3.13;;
59828;SDS011;45708;51.848;107.620;2022-09-24T05:40:53;3.83;;;2.10;;
59828;SDS011;45708;51.848;107.620;2022-09-24T05:45:54;2.63;;;1.73;;
59828;SDS011;45708;51.848;107.620;2022-09-24T05:50:55;2.50;;;1.85;;
59828;SDS011;45708;51.848;107.620;2022-09-24T05:55:55;3.03;;;1.95;;
59828;SDS011;45708;51.848;107.620;2022-09-24T06:00:57;3.53;;;2.25;;
59828;SDS011;45708;51.848;107.620;2022-09-24T06:05:59;5.80;;;2.78;;
59828;SDS011;45708;51.848;107.620;2022-09-24T06:11:00;5.82;;;1.83;;
59828;SDS011;45708;51.848;107.620;2022-09-24T06:16:04;5.13;;;2.90;;
59828;SDS011;45708;51.848;107.620;2022-09-24T06:21:08;3.40;;;2.13;;
59828;SDS011;45708;51.848;107.620;2022-09-24T06:26:14;1.50;;;1.10;;
59828;SDS011;45708;51.848;107.620;2022-09-24T06:31:14;3.85;;;1.90;;
59828;SDS011;45708;51.848;107.620;2022-09-24T06:36:17;2.40;;;1.63;;
59828;SDS011;45708;51.848;107.620;2022-09-24T06:41:18;6.25;;;1.67;;
59828;SDS011;45708;51.848;107.620;2022-09-24T06:46:18;3.13;;;1.40;;
59828;SDS011;45708;51.848;107.620;2022-09-24T06:51:19;1.98;;;1.58;;
59828;SDS011;45708;51.848;107.620;2022-09-24T06:56:20;1.55;;;1.40;;
59828;SDS011;45708;51.848;107.620;2022-09-24T07:01:21;2.72;;;1.33;;
59828;SDS011;45708;51.848;107.620;2022-09-24T07:06:22;2.17;;;1.42;;
59828;SDS011;45708;51.848;107.620;2022-09-24T07:11:23;3.75;;;1.70;;
59828;SDS011;45708;51.848;107.620;2022-09-24T07:16:24;2.15;;;1.35;;
59828;SDS011;45708;51.848;107.620;2022-09-24T07:21:24;3.08;;;1.35;;
59828;SDS011;45708;51.848;107.620;2022-09-24T07:26:27;2.00;;;1.42;;
59828;SDS011;45708;51.848;107.620;2022-09-24T07:31:28;2.42;;;1.55;;
59828;SDS011;45708;51.848;107.620;2022-09-24T07:36:29;4.88;;;1.95;;
59828;SDS011;45708;51.848;107.620;2022-09-24T07:41:30;4.97;;;3.53;;
59828;SDS011;45708;51.848;107.620;2022-09-24T07:46:31;1.38;;;1.13;;
59828;SDS011;45708;51.848;107.620;2022-09-24T07:51:32;1.55;;;1.17;;
59828;SDS011;45708;51.848;107.620;2022-09-24T07:56:32;3.05;;;1.60;;
59828;SDS011;45708;51.848;107.620;2022-09-24T08:01:34;1.75;;;1.17;;
59828;SDS011;45708;51.848;107.620;2022-09-24T08:06:34;2.28;;;1.17;;
59828;SDS011;45708;51.848;107.620;2022-09-24T08:11:36;10.25;;;2.70;;
59828;SDS011;45708;51.848;107.620;2022-09-24T08:16:36;13.10;;;7.07;;
59828;SDS011;45708;51.848;107.620;2022-09-24T08:21:37;1.98;;;1.63;;
59828;SDS011;45708;51.848;107.620;2022-09-24T08:26:38;2.00;;;1.70;;
59828;SDS011;45708;51.848;107.620;2022-09-24T08:31:39;5.82;;;2.85;;
59828;SDS011;45708;51.848;107.620;2022-09-24T08:36:40;7.88;;;5.20;;
59828;SDS011;45708;51.848;107.620;2022-09-24T08:41:54;5.45;;;2.30;;
59828;SDS011;45708;51.848;107.620;2022-09-24T08:46:59;3.03;;;2.05;;
59828;SDS011;45708;51.848;107.620;2022-09-24T09:08:41;18.07;;;9.70;;
59828;SDS011;45708;51.848;107.620;2022-09-24T09:13:45;20.13;;;11.35;;
59828;SDS011;45708;51.848;107.620;2022-09-24T09:19:03;6.20;;;4.10;;
59828;SDS011;45708;51.848;107.620;2022-09-24T09:24:05;7.50;;;4.57;;
59828;SDS011;45708;51.848;107.620;2022-09-24T09:29:15;6.53;;;3.30;;
59828;SDS011;45708;51.848;107.620;2022-09-24T09:55:34;16.80;;;5.22;;
59828;SDS011;45708;51.848;107.620;2022-09-24T10:00:36;7.85;;;4.43;;
59828;SDS011;45708;51.848;107.620;2022-09-24T10:05:37;10.70;;;6.88;;
59828;SDS011;45708;51.848;107.620;2022-09-24T10:10:38;8.07;;;4.53;;
59828;SDS011;45708;51.848;107.620;2022-09-24T10:15:49;8.65;;;5.75;;
59828;SDS011;45708;51.848;107.620;2022-09-24T10:20:55;2.72;;;2.47;;
59828;SDS011;45708;51.848;107.620;2022-09-24T10:25:59;3.88;;;3.00;;
59828;SDS011;45708;51.848;107.620;2022-09-24T10:31:05;3.83;;;2.33;;
59828;SDS011;45708;51.848;107.620;2022-09-24T10:36:22;2.40;;;1.08;;
59828;SDS011;45708;51.848;107.620;2022-09-24T10:41:26;3.65;;;1.67;;
59828;SDS011;45708;51.848;107.620;2022-09-24T10:51:50;6.60;;;3.25;;
59828;SDS011;45708;51.848;107.620;2022-09-24T10:57:17;6.78;;;2.65;;
59828;SDS011;45708;51.848;107.620;2022-09-24T11:13:24;6.78;;;2.97;;
59828;SDS011;45708;51.848;107.620;2022-09-24T11:40:08;2.47;;;1.75;;
59828;SDS011;45708;51.848;107.620;2022-09-24T11:56:11;10.55;;;5.10;;
59828;SDS011;45708;51.848;107.620;2022-09-24T12:01:25;9.77;;;4.65;;
59828;SDS011;45708;51.848;107.620;2022-09-24T12:06:32;12.02;;;6.13;;
59828;SDS011;45708;51.848;107.620;2022-09-24T12:11:41;8.73;;;5.32;;
59828;SDS011;45708;51.848;107.620;2022-09-24T12:16:52;4.57;;;3.00;;
59828;SDS011;45708;51.848;107.620;2022-09-24T12:21:59;8.10;;;3.53;;
59828;SDS011;45708;51.848;107.620;2022-09-24T12:27:13;5.50;;;3.50;;
59828;SDS011;45708;51.848;107.620;2022-09-24T12:32:21;7.97;;;3.80;;
59828;SDS011;45708;51.848;107.620;2022-09-24T12:37:30;5.40;;;3.25;;
59828;SDS011;45708;51.848;107.620;2022-09-24T12:42:36;5.65;;;3.13;;
59828;SDS011;45708;51.848;107.620;2022-09-24T12:47:47;12.57;;;5.07;;
59828;SDS011;45708;51.848;107.620;2022-09-24T12:52:51;6.22;;;3.78;;
59828;SDS011;45708;51.848;107.620;2022-09-24T12:57:53;6.75;;;4.90;;
59828;SDS011;45708;51.848;107.620;2022-09-24T13:02:59;8.30;;;6.63;;
59828;SDS011;45708;51.848;107.620;2022-09-24T13:13:24;21.17;;;9.05;;
59828;SDS011;45708;51.848;107.620;2022-09-24T13:18:27;8.02;;;4.72;;
59828;SDS011;45708;51.848;107.620;2022-09-24T13:33:44;4.57;;;3.50;;
59828;SDS011;45708;51.848;107.620;2022-09-24T13:38:51;6.50;;;4.07;;
59828;SDS011;45708;51.848;107.620;2022-09-24T13:49:21;7.38;;;3.85;;
59828;SDS011;45708;51.848;107.620;2022-09-24T13:54:25;7.75;;;4.15;;
59828;SDS011;45708;51.848;107.620;2022-09-24T13:59:34;6.63;;;3.60;;
59828;SDS011;45708;51.848;107.620;2022-09-24T14:04:35;4.13;;;2.50;;
59828;SDS011;45708;51.848;107.620;2022-09-24T14:09:37;7.55;;;3.20;;
59828;SDS011;45708;51.848;107.620;2022-09-24T14:14:41;7.70;;;4.15;;
59828;SDS011;45708;51.848;107.620;2022-09-24T14:19:44;36.08;;;17.60;;
59828;SDS011;45708;51.848;107.620;2022-09-24T14:24:50;10.95;;;5.53;;
59828;SDS011;45708;51.848;107.620;2022-09-24T14:30:01;9.52;;;5.65;;
59828;SDS011;45708;51.848;107.620;2022-09-24T14:35:05;43.60;;;17.63;;
59828;SDS011;45708;51.848;107.620;2022-09-24T14:40:22;32.20;;;13.65;;
59828;SDS011;45708;51.848;107.620;2022-09-24T14:45:31;25.92;;;12.38;;
59828;SDS011;45708;51.848;107.620;2022-09-24T14:50:38;21.77;;;10.35;;
59828;SDS011;45708;51.848;107.620;2022-09-24T14:55:40;14.65;;;8.52;;
59828;SDS011;45708;51.848;107.620;2022-09-24T15:00:45;4.65;;;2.67;;
59828;SDS011;45708;51.848;107.620;2022-09-24T15:05:49;27.27;;;13.20;;
59828;SDS011;45708;51.848;107.620;2022-09-24T15:10:50;11.48;;;5.70;;
59828;SDS011;45708;51.848;107.620;2022-09-24T15:16:02;10.68;;;6.18;;
59828;SDS011;45708;51.848;107.620;2022-09-24T15:21:27;15.45;;;8.07;;
59828;SDS011;45708;51.848;107.620;2022-09-24T15:26:29;20.23;;;8.82;;
59828;SDS011;45708;51.848;107.620;2022-09-24T15:31:32;17.45;;;7.75;;
59828;SDS011;45708;51.848;107.620;2022-09-24T15:36:33;11.45;;;5.70;;
59828;SDS011;45708;51.848;107.620;2022-09-24T15:41:34;7.22;;;3.92;;
59828;SDS011;45708;51.848;107.620;2022-09-24T15:46:35;8.10;;;2.25;;
59828;SDS011;45708;51.848;107.620;2022-09-24T15:51:36;5.35;;;2.55;;
59828;SDS011;45708;51.848;107.620;2022-09-24T15:56:38;9.23;;;3.05;;
59828;SDS011;45708;51.848;107.620;2022-09-24T16:01:40;2.30;;;1.88;;
59828;SDS011;45708;51.848;107.620;2022-09-24T16:06:41;2.97;;;1.60;;
59828;SDS011;45708;51.848;107.620;2022-09-24T16:11:42;2.78;;;1.48;;
59828;SDS011;45708;51.848;107.620;2022-09-24T16:16:43;2.67;;;1.23;;
59828;SDS011;45708;51.848;107.620;2022-09-24T16:21:44;2.65;;;1.42;;
59828;SDS011;45708;51.848;107.620;2022-09-24T16:26:45;2.63;;;1.70;;
59828;SDS011;45708;51.848;107.620;2022-09-24T16:31:45;3.92;;;2.03;;
59828;SDS011;45708;51.848;107.620;2022-09-24T16:36:46;2.55;;;1.50;;
59828;SDS011;45708;51.848;107.620;2022-09-24T16:41:47;4.57;;;2.20;;
59828;SDS011;45708;51.848;107.620;2022-09-24T16:46:49;2.85;;;1.98;;
59828;SDS011;45708;51.848;107.620;2022-09-24T16:51:49;2.05;;;1.85;;
59828;SDS011;45708;51.848;107.620;2022-09-24T16:56:50;1.48;;;1.27;;
59828;SDS011;45708;51.848;107.620;2022-09-24T17:01:51;2.00;;;1.52;;
59828;SDS011;45708;51.848;107.620;2022-09-24T17:06:53;1.90;;;1.48;;
59828;SDS011;45708;51.848;107.620;2022-09-24T17:11:54;4.35;;;2.45;;
59828;SDS011;45708;51.848;107.620;2022-09-24T17:16:55;7.63;;;4.07;;
59828;SDS011;45708;51.848;107.620;2022-09-24T17:21:56;4.05;;;2.90;;
59828;SDS011;45708;51.848;107.620;2022-09-24T17:26:58;5.03;;;3.00;;
59828;SDS011;45708;51.848;107.620;2022-09-24T17:31:59;5.40;;;3.30;;
59828;SDS011;45708;51.848;107.620;2022-09-24T17:37:00;6.22;;;2.83;;
59828;SDS011;45708;51.848;107.620;2022-09-24T17:42:01;4.93;;;2.67;;
59828;SDS011;45708;51.848;107.620;2022-09-24T17:47:02;5.88;;;2.92;;
59828;SDS011;45708;51.848;107.620;2022-09-24T17:52:03;7.20;;;3.70;;
59828;SDS011;45708;51.848;107.620;2022-09-24T17:57:04;4.70;;;2.90;;
59828;SDS011;45708;51.848;107.620;2022-09-24T18:02:05;3.95;;;2.50;;
59828;SDS011;45708;51.848;107.620;2022-09-24T18:07:05;4.55;;;2.47;;
59828;SDS011;45708;51.848;107.620;2022-09-24T18:12:06;4.03;;;2.53;;
59828;SDS011;45708;51.848;107.620;2022-09-24T18:17:07;5.43;;;2.88;;
59828;SDS011;45708;51.848;107.620;2022-09-24T18:22:08;4.45;;;2.88;;
59828;SDS011;45708;51.848;107.620;2022-09-24T18:27:09;3.78;;;2.03;;
59828;SDS011;45708;51.848;107.620;2022-09-24T18:32:09;2.67;;;2.47;;
59828;SDS011;45708;51.848;107.620;2022-09-24T18:37:10;2.17;;;1.85;;
59828;SDS011;45708;51.848;107.620;2022-09-24T18:42:11;3.50;;;1.88;;
59828;SDS011;45708;51.848;107.620;2022-09-24T18:47:12;2.35;;;1.45;;
59828;SDS011;45708;51.848;107.620;2022-09-24T18:52:13;4.63;;;2.30;;
59828;SDS011;45708;51.848;107.620;2022-09-24T18:57:13;3.72;;;2.40;;
59828;SDS011;45708;51.848;107.620;2022-09-24T19:02:14;5.22;;;2.70;;
59828;SDS011;45708;51.848;107.620;2022-09-24T19:07:15;4.45;;;3.03;;
59828;SDS011;45708;51.848;107.620;2022-09-24T19:12:16;3.50;;;2.70;;
59828;SDS011;45708;51.848;107.620;2022-09-24T19:17:17;4.28;;;2.28;;
59828;SDS011;45708;51.848;107.620;2022-09-24T19:22:17;1.60;;;1.50;;
59828;SDS011;45708;51.848;107.620;2022-09-24T19:27:18;2.85;;;1.88;;
59828;SDS011;45708;51.848;107.620;2022-09-24T19:32:19;3.40;;;2.42;;
59828;SDS011;45708;51.848;107.620;2022-09-24T19:37:20;5.65;;;2.63;;
59828;SDS011;45708;51.848;107.620;2022-09-24T19:42:21;5.28;;;2.50;;
59828;SDS011;45708;51.848;107.620;2022-09-24T19:47:21;3.08;;;2.13;;
59828;SDS011;45708;51.848;107.620;2022-09-24T19:52:22;3.85;;;2.22;;
59828;SDS011;45708;51.848;107.620;2022-09-24T19:57:24;3.40;;;2.13;;
59828;SDS011;45708;51.848;107.620;2022-09-24T20:02:25;3.30;;;2.03;;
59828;SDS011;45708;51.848;107.620;2022-09-24T20:07:26;2.50;;;2.30;;
59828;SDS011;45708;51.848;107.620;2022-09-24T20:12:27;2.13;;;1.80;;
59828;SDS011;45708;51.848;107.620;2022-09-24T20:17:27;2.65;;;1.83;;
59828;SDS011;45708;51.848;107.620;2022-09-24T20:22:30;3.10;;;1.85;;
59828;SDS011;45708;51.848;107.620;2022-09-24T20:27:31;5.35;;;1.92;;
59828;SDS011;45708;51.848;107.620;2022-09-24T20:32:33;3.90;;;1.75;;
59828;SDS011;45708;51.848;107.620;2022-09-24T20:37:34;1.90;;;1.70;;
59828;SDS011;45708;51.848;107.620;2022-09-24T20:42:36;2.60;;;1.90;;
59828;SDS011;45708;51.848;107.620;2022-09-24T20:47:37;2.95;;;1.83;;
59828;SDS011;45708;51.848;107.620;2022-09-24T20:52:38;2.10;;;1.70;;
59828;SDS011;45708;51.848;107.620;2022-09-24T20:57:39;3.20;;;1.48;;
59828;SDS011;45708;51.848;107.620;2022-09-24T21:02:41;3.13;;;2.00;;
59828;SDS011;45708;51.848;107.620;2022-09-24T21:07:42;2.22;;;1.85;;
59828;SDS011;45708;51.848;107.620;2022-09-24T21:12:45;3.25;;;2.13;;
59828;SDS011;45708;51.848;107.620;2022-09-24T21:17:46;2.22;;;1.85;;
59828;SDS011;45708;51.848;107.620;2022-09-24T21:22:47;1.92;;;1.65;;
59828;SDS011;45708;51.848;107.620;2022-09-24T21:27:48;3.28;;;1.67;;
59828;SDS011;45708;51.848;107.620;2022-09-24T21:32:49;2.95;;;1.90;;
59828;SDS011;45708;51.848;107.620;2022-09-24T21:37:49;2.80;;;1.65;;
59828;SDS011;45708;51.848;107.620;2022-09-24T21:42:50;2.13;;;1.92;;
59828;SDS011;45708;51.848;107.620;2022-09-24T21:47:51;2.20;;;1.90;;
59828;SDS011;45708;51.848;107.620;2022-09-24T21:52:52;2.35;;;1.83;;
59828;SDS011;45708;51.848;107.620;2022-09-24T21:57:52;2.50;;;1.95;;
59828;SDS011;45708;51.848;107.620;2022-09-24T22:02:53;4.32;;;2.13;;
59828;SDS011;45708;51.848;107.620;2022-09-24T22:07:54;2.83;;;1.70;;
59828;SDS011;45708;51.848;107.620;2022-09-24T22:12:55;3.38;;;1.67;;
59828;SDS011;45708;51.848;107.620;2022-09-24T22:17:56;1.52;;;1.40;;
59828;SDS011;45708;51.848;107.620;2022-09-24T22:22:57;2.53;;;1.92;;
59828;SDS011;45708;51.848;107.620;2022-09-24T22:27:58;1.92;;;1.75;;
59828;SDS011;45708;51.848;107.620;2022-09-24T22:32:59;1.65;;;1.55;;
59828;SDS011;45708;51.848;107.620;2022-09-24T22:37:59;2.40;;;2.10;;
59828;SDS011;45708;51.848;107.620;2022-09-24T22:43:00;1.77;;;1.20;;
59828;SDS011;45708;51.848;107.620;2022-09-24T22:48:01;2.50;;;2.03;;
59828;SDS011;45708;51.848;107.620;2022-09-24T22:53:02;2.50;;;1.75;;
59828;SDS011;45708;51.848;107.620;2022-09-24T22:58:03;2.25;;;1.60;;
59828;SDS011;45708;51.848;107.620;2022-09-24T23:03:04;2.25;;;1.90;;
59828;SDS011;45708;51.848;107.620;2022-09-24T23:08:05;2.35;;;1.83;;
59828;SDS011;45708;51.848;107.620;2022-09-24T23:13:06;4.10;;;1.60;;
59828;SDS011;45708;51.848;107.620;2022-09-24T23:18:07;2.78;;;1.70;;
59828;SDS011;45708;51.848;107.620;2022-09-24T23:23:07;2.75;;;1.45;;
59828;SDS011;45708;51.848;107.620;2022-09-24T23:28:08;1.52;;;0.95;;
59828;SDS011;45708;51.848;107.620;2022-09-24T23:33:09;1.38;;;1.20;;
59828;SDS011;45708;51.848;107.620;2022-09-24T23:38:10;2.33;;;1.10;;
59828;SDS011;45708;51.848;107.620;2022-09-24T23:43:11;1.17;;;0.88;;
59828;SDS011;45708;51.848;107.620;2022-09-24T23:48:12;1.75;;;1.45;;
59828;SDS011;45708;51.848;107.620;2022-09-24T23:53:14;1.85;;;1.10;;
59828;SDS011;45708;51.848;107.620;2022-09-24T23:58:17;1.88;;;1.70;;
